Terminal Aerodrome Forecast
Issued by NWS

Home | Current Version | Previous Version | Text Only | Print | Product List | Glossary On
Versions: 1 2 3 4 5 6 7 8 9 10 11 12
000
FTUS46 KLOX 041136
TAFBUR
TAF
KBUR 041136Z 0412/0512 VRB03KT P6SM SCT200
     FM042000 18009KT P6SM SCT200
     FM050400 VRB03KT P6SM SCT200=

USA.gov is the U.S. government's official web portal to all federal, state and local government web resources and services.